sensor_id;sensor_type;location;lat;lon;timestamp;P1;durP1;ratioP1;P2;durP2;ratioP2
19225;SDS011;9747;48.536;12.522;2023-07-02T00:02:21;2.40;;;2.30;;
19225;SDS011;9747;48.536;12.522;2023-07-02T00:04:48;3.05;;;2.85;;
19225;SDS011;9747;48.536;12.522;2023-07-02T00:07:17;2.90;;;2.70;;
19225;SDS011;9747;48.536;12.522;2023-07-02T00:09:44;3.03;;;2.40;;
19225;SDS011;9747;48.536;12.522;2023-07-02T00:12:13;2.47;;;2.38;;
19225;SDS011;9747;48.536;12.522;2023-07-02T00:14:40;2.22;;;2.08;;
19225;SDS011;9747;48.536;12.522;2023-07-02T00:17:08;2.30;;;2.20;;
19225;SDS011;9747;48.536;12.522;2023-07-02T00:19:37;2.55;;;2.30;;
19225;SDS011;9747;48.536;12.522;2023-07-02T00:22:07;2.40;;;2.20;;
19225;SDS011;9747;48.536;12.522;2023-07-02T00:24:35;2.00;;;1.90;;
19225;SDS011;9747;48.536;12.522;2023-07-02T00:27:03;2.40;;;2.20;;
19225;SDS011;9747;48.536;12.522;2023-07-02T00:29:31;2.67;;;2.47;;
19225;SDS011;9747;48.536;12.522;2023-07-02T00:31:58;1.90;;;1.80;;
19225;SDS011;9747;48.536;12.522;2023-07-02T00:34:26;2.20;;;2.00;;
19225;SDS011;9747;48.536;12.522;2023-07-02T00:36:53;1.80;;;1.70;;
19225;SDS011;9747;48.536;12.522;2023-07-02T00:39:20;2.20;;;2.00;;
19225;SDS011;9747;48.536;12.522;2023-07-02T00:41:49;2.10;;;2.00;;
19225;SDS011;9747;48.536;12.522;2023-07-02T00:44:17;2.20;;;2.10;;
19225;SDS011;9747;48.536;12.522;2023-07-02T00:46:44;2.10;;;2.00;;
19225;SDS011;9747;48.536;12.522;2023-07-02T00:49:11;1.98;;;1.88;;
19225;SDS011;9747;48.536;12.522;2023-07-02T00:51:39;2.10;;;2.00;;
19225;SDS011;9747;48.536;12.522;2023-07-02T00:54:08;1.98;;;1.88;;
19225;SDS011;9747;48.536;12.522;2023-07-02T00:56:35;2.20;;;2.00;;
19225;SDS011;9747;48.536;12.522;2023-07-02T00:59:04;2.45;;;1.98;;
19225;SDS011;9747;48.536;12.522;2023-07-02T01:01:32;2.30;;;2.05;;
19225;SDS011;9747;48.536;12.522;2023-07-02T01:04:03;1.95;;;1.85;;
19225;SDS011;9747;48.536;12.522;2023-07-02T01:06:34;1.80;;;1.70;;
19225;SDS011;9747;48.536;12.522;2023-07-02T01:09:05;2.08;;;1.98;;
19225;SDS011;9747;48.536;12.522;2023-07-02T01:11:34;1.90;;;1.80;;
19225;SDS011;9747;48.536;12.522;2023-07-02T01:14:07;1.90;;;1.80;;
19225;SDS011;9747;48.536;12.522;2023-07-02T01:16:37;1.88;;;1.77;;
19225;SDS011;9747;48.536;12.522;2023-07-02T01:19:10;1.83;;;1.73;;
19225;SDS011;9747;48.536;12.522;2023-07-02T01:21:41;1.80;;;1.70;;
19225;SDS011;9747;48.536;12.522;2023-07-02T01:24:08;1.80;;;1.70;;
19225;SDS011;9747;48.536;12.522;2023-07-02T01:26:36;1.60;;;1.58;;
19225;SDS011;9747;48.536;12.522;2023-07-02T01:29:12;1.83;;;1.73;;
19225;SDS011;9747;48.536;12.522;2023-07-02T01:31:41;2.00;;;1.80;;
19225;SDS011;9747;48.536;12.522;2023-07-02T01:34:09;1.85;;;1.75;;
19225;SDS011;9747;48.536;12.522;2023-07-02T01:36:36;1.80;;;1.70;;
19225;SDS011;9747;48.536;12.522;2023-07-02T01:39:05;1.85;;;1.75;;
19225;SDS011;9747;48.536;12.522;2023-07-02T01:41:36;1.80;;;1.70;;
19225;SDS011;9747;48.536;12.522;2023-07-02T01:44:08;1.80;;;1.70;;
19225;SDS011;9747;48.536;12.522;2023-07-02T01:46:35;1.52;;;1.52;;
19225;SDS011;9747;48.536;12.522;2023-07-02T01:49:04;2.10;;;1.90;;
19225;SDS011;9747;48.536;12.522;2023-07-02T01:51:32;1.92;;;1.83;;
19225;SDS011;9747;48.536;12.522;2023-07-02T01:54:00;2.15;;;2.05;;
19225;SDS011;9747;48.536;12.522;2023-07-02T01:56:29;1.73;;;1.65;;
19225;SDS011;9747;48.536;12.522;2023-07-02T01:58:56;2.28;;;2.08;;
19225;SDS011;9747;48.536;12.522;2023-07-02T02:01:25;1.80;;;1.70;;
19225;SDS011;9747;48.536;12.522;2023-07-02T02:03:53;1.90;;;1.80;;
19225;SDS011;9747;48.536;12.522;2023-07-02T02:06:20;1.90;;;1.80;;
19225;SDS011;9747;48.536;12.522;2023-07-02T02:08:48;1.80;;;1.70;;
19225;SDS011;9747;48.536;12.522;2023-07-02T02:11:15;1.50;;;1.50;;
19225;SDS011;9747;48.536;12.522;2023-07-02T02:13:44;1.77;;;1.73;;
19225;SDS011;9747;48.536;12.522;2023-07-02T02:16:11;2.10;;;2.00;;
19225;SDS011;9747;48.536;12.522;2023-07-02T02:18:39;1.90;;;1.80;;
19225;SDS011;9747;48.536;12.522;2023-07-02T02:21:06;1.77;;;1.67;;
19225;SDS011;9747;48.536;12.522;2023-07-02T02:23:34;1.90;;;1.80;;
19225;SDS011;9747;48.536;12.522;2023-07-02T02:26:01;1.83;;;1.73;;
19225;SDS011;9747;48.536;12.522;2023-07-02T02:28:28;1.80;;;1.70;;
19225;SDS011;9747;48.536;12.522;2023-07-02T02:30:57;1.42;;;1.42;;
19225;SDS011;9747;48.536;12.522;2023-07-02T02:33:25;1.80;;;1.70;;
19225;SDS011;9747;48.536;12.522;2023-07-02T02:35:52;2.00;;;1.90;;
19225;SDS011;9747;48.536;12.522;2023-07-02T02:38:20;1.90;;;1.80;;
19225;SDS011;9747;48.536;12.522;2023-07-02T02:40:47;1.55;;;1.45;;
19225;SDS011;9747;48.536;12.522;2023-07-02T02:43:18;1.77;;;1.67;;
19225;SDS011;9747;48.536;12.522;2023-07-02T02:45:46;2.10;;;2.00;;
19225;SDS011;9747;48.536;12.522;2023-07-02T02:48:15;1.77;;;1.67;;
19225;SDS011;9747;48.536;12.522;2023-07-02T02:50:42;1.95;;;1.85;;
19225;SDS011;9747;48.536;12.522;2023-07-02T02:53:11;1.60;;;1.60;;
19225;SDS011;9747;48.536;12.522;2023-07-02T02:55:38;2.00;;;1.90;;
19225;SDS011;9747;48.536;12.522;2023-07-02T02:58:05;1.77;;;1.67;;
19225;SDS011;9747;48.536;12.522;2023-07-02T03:00:33;1.90;;;1.80;;
19225;SDS011;9747;48.536;12.522;2023-07-02T03:03:01;1.70;;;1.60;;
19225;SDS011;9747;48.536;12.522;2023-07-02T03:05:30;1.70;;;1.60;;
19225;SDS011;9747;48.536;12.522;2023-07-02T03:07:57;1.90;;;1.80;;
19225;SDS011;9747;48.536;12.522;2023-07-02T03:10:25;1.77;;;1.67;;
19225;SDS011;9747;48.536;12.522;2023-07-02T03:12:53;1.83;;;1.73;;
19225;SDS011;9747;48.536;12.522;2023-07-02T03:15:21;1.90;;;1.80;;
19225;SDS011;9747;48.536;12.522;2023-07-02T03:17:48;1.80;;;1.70;;
19225;SDS011;9747;48.536;12.522;2023-07-02T03:20:16;1.42;;;1.33;;
19225;SDS011;9747;48.536;12.522;2023-07-02T03:22:45;1.75;;;1.65;;
19225;SDS011;9747;48.536;12.522;2023-07-02T03:25:12;1.70;;;1.70;;
19225;SDS011;9747;48.536;12.522;2023-07-02T03:27:40;1.75;;;1.65;;
19225;SDS011;9747;48.536;12.522;2023-07-02T03:30:08;1.60;;;1.50;;
19225;SDS011;9747;48.536;12.522;2023-07-02T03:32:35;1.50;;;1.50;;
19225;SDS011;9747;48.536;12.522;2023-07-02T03:35:03;1.90;;;1.80;;
19225;SDS011;9747;48.536;12.522;2023-07-02T03:37:31;1.40;;;1.40;;
19225;SDS011;9747;48.536;12.522;2023-07-02T03:40:00;1.77;;;1.67;;
19225;SDS011;9747;48.536;12.522;2023-07-02T03:42:29;1.75;;;1.65;;
19225;SDS011;9747;48.536;12.522;2023-07-02T03:44:59;1.70;;;1.60;;
19225;SDS011;9747;48.536;12.522;2023-07-02T03:47:26;1.70;;;1.60;;
19225;SDS011;9747;48.536;12.522;2023-07-02T03:49:53;1.70;;;1.60;;
19225;SDS011;9747;48.536;12.522;2023-07-02T03:52:21;1.52;;;1.50;;
19225;SDS011;9747;48.536;12.522;2023-07-02T03:54:48;1.65;;;1.58;;
19225;SDS011;9747;48.536;12.522;2023-07-02T03:57:17;1.50;;;1.50;;
19225;SDS011;9747;48.536;12.522;2023-07-02T03:59:44;1.48;;;1.48;;
19225;SDS011;9747;48.536;12.522;2023-07-02T04:02:12;1.60;;;1.50;;
19225;SDS011;9747;48.536;12.522;2023-07-02T04:04:39;1.83;;;1.73;;
19225;SDS011;9747;48.536;12.522;2023-07-02T04:07:07;1.77;;;1.67;;
19225;SDS011;9747;48.536;12.522;2023-07-02T04:09:34;1.80;;;1.70;;
19225;SDS011;9747;48.536;12.522;2023-07-02T04:12:01;2.10;;;1.80;;
19225;SDS011;9747;48.536;12.522;2023-07-02T04:14:31;1.45;;;1.42;;
19225;SDS011;9747;48.536;12.522;2023-07-02T04:16:58;1.65;;;1.55;;
19225;SDS011;9747;48.536;12.522;2023-07-02T04:19:28;1.83;;;1.73;;
19225;SDS011;9747;48.536;12.522;2023-07-02T04:21:55;1.85;;;1.75;;
19225;SDS011;9747;48.536;12.522;2023-07-02T04:24:23;1.90;;;1.80;;
19225;SDS011;9747;48.536;12.522;2023-07-02T04:26:51;1.80;;;1.70;;
19225;SDS011;9747;48.536;12.522;2023-07-02T04:29:18;1.70;;;1.60;;
19225;SDS011;9747;48.536;12.522;2023-07-02T04:31:47;1.80;;;1.70;;
19225;SDS011;9747;48.536;12.522;2023-07-02T04:34:14;1.73;;;1.60;;
19225;SDS011;9747;48.536;12.522;2023-07-02T04:36:42;1.70;;;1.60;;
19225;SDS011;9747;48.536;12.522;2023-07-02T04:39:10;1.92;;;1.83;;
19225;SDS011;9747;48.536;12.522;2023-07-02T04:41:37;4.47;;;1.60;;
19225;SDS011;9747;48.536;12.522;2023-07-02T04:44:05;2.05;;;1.85;;
19225;SDS011;9747;48.536;12.522;2023-07-02T04:46:32;1.70;;;1.60;;
19225;SDS011;9747;48.536;12.522;2023-07-02T04:49:01;2.00;;;1.90;;
19225;SDS011;9747;48.536;12.522;2023-07-02T04:51:28;1.80;;;1.70;;
19225;SDS011;9747;48.536;12.522;2023-07-02T04:53:56;1.70;;;1.60;;
19225;SDS011;9747;48.536;12.522;2023-07-02T04:56:23;1.70;;;1.60;;
19225;SDS011;9747;48.536;12.522;2023-07-02T04:58:51;2.63;;;1.60;;
19225;SDS011;9747;48.536;12.522;2023-07-02T05:01:19;1.60;;;1.60;;
19225;SDS011;9747;48.536;12.522;2023-07-02T05:03:46;1.63;;;1.52;;
19225;SDS011;9747;48.536;12.522;2023-07-02T05:06:15;1.45;;;1.45;;
19225;SDS011;9747;48.536;12.522;2023-07-02T05:08:42;1.80;;;1.70;;
19225;SDS011;9747;48.536;12.522;2023-07-02T05:11:10;1.73;;;1.50;;
19225;SDS011;9747;48.536;12.522;2023-07-02T05:13:37;1.80;;;1.70;;
19225;SDS011;9747;48.536;12.522;2023-07-02T05:16:04;1.80;;;1.70;;
19225;SDS011;9747;48.536;12.522;2023-07-02T05:18:32;1.90;;;1.80;;
19225;SDS011;9747;48.536;12.522;2023-07-02T05:21:00;1.67;;;1.58;;
19225;SDS011;9747;48.536;12.522;2023-07-02T05:23:28;1.60;;;1.60;;
19225;SDS011;9747;48.536;12.522;2023-07-02T05:25:56;1.85;;;1.75;;
19225;SDS011;9747;48.536;12.522;2023-07-02T05:28:23;1.73;;;1.60;;
19225;SDS011;9747;48.536;12.522;2023-07-02T05:30:51;1.50;;;1.40;;
19225;SDS011;9747;48.536;12.522;2023-07-02T05:33:18;1.60;;;1.50;;
19225;SDS011;9747;48.536;12.522;2023-07-02T05:35:47;1.77;;;1.67;;
19225;SDS011;9747;48.536;12.522;2023-07-02T05:38:14;2.90;;;2.03;;
19225;SDS011;9747;48.536;12.522;2023-07-02T05:40:43;3.65;;;2.30;;
19225;SDS011;9747;48.536;12.522;2023-07-02T05:43:11;4.20;;;2.10;;
19225;SDS011;9747;48.536;12.522;2023-07-02T05:45:39;2.55;;;2.20;;
19225;SDS011;9747;48.536;12.522;2023-07-02T05:48:06;2.10;;;1.90;;
19225;SDS011;9747;48.536;12.522;2023-07-02T05:50:33;2.05;;;1.95;;
19225;SDS011;9747;48.536;12.522;2023-07-02T05:53:01;2.30;;;2.10;;
19225;SDS011;9747;48.536;12.522;2023-07-02T05:55:28;2.40;;;2.00;;
19225;SDS011;9747;48.536;12.522;2023-07-02T05:57:57;2.22;;;2.00;;
19225;SDS011;9747;48.536;12.522;2023-07-02T06:00:26;4.63;;;2.25;;
19225;SDS011;9747;48.536;12.522;2023-07-02T06:02:54;3.58;;;1.92;;
19225;SDS011;9747;48.536;12.522;2023-07-02T06:05:21;1.92;;;1.83;;
19225;SDS011;9747;48.536;12.522;2023-07-02T06:07:49;1.98;;;1.80;;
19225;SDS011;9747;48.536;12.522;2023-07-02T06:10:16;2.35;;;1.70;;
19225;SDS011;9747;48.536;12.522;2023-07-02T06:12:44;3.03;;;2.17;;
19225;SDS011;9747;48.536;12.522;2023-07-02T06:15:13;2.20;;;2.10;;
19225;SDS011;9747;48.536;12.522;2023-07-02T06:17:40;3.38;;;2.50;;
19225;SDS011;9747;48.536;12.522;2023-07-02T06:20:10;2.65;;;2.10;;
19225;SDS011;9747;48.536;12.522;2023-07-02T06:22:38;2.17;;;1.98;;
19225;SDS011;9747;48.536;12.522;2023-07-02T06:25:07;5.07;;;2.17;;
19225;SDS011;9747;48.536;12.522;2023-07-02T06:27:35;2.40;;;1.83;;
19225;SDS011;9747;48.536;12.522;2023-07-02T06:30:02;4.05;;;2.25;;
19225;SDS011;9747;48.536;12.522;2023-07-02T06:32:32;4.38;;;2.17;;
19225;SDS011;9747;48.536;12.522;2023-07-02T06:34:59;2.45;;;1.88;;
19225;SDS011;9747;48.536;12.522;2023-07-02T06:37:27;2.88;;;2.17;;
19225;SDS011;9747;48.536;12.522;2023-07-02T06:39:55;2.08;;;1.88;;
19225;SDS011;9747;48.536;12.522;2023-07-02T06:42:22;2.00;;;1.88;;
19225;SDS011;9747;48.536;12.522;2023-07-02T06:44:50;2.03;;;1.80;;
19225;SDS011;9747;48.536;12.522;2023-07-02T06:47:17;2.20;;;1.80;;
19225;SDS011;9747;48.536;12.522;2023-07-02T06:49:46;1.80;;;1.70;;
19225;SDS011;9747;48.536;12.522;2023-07-02T06:52:13;2.30;;;2.00;;
19225;SDS011;9747;48.536;12.522;2023-07-02T06:54:41;1.90;;;1.80;;
19225;SDS011;9747;48.536;12.522;2023-07-02T06:57:08;2.10;;;2.00;;
19225;SDS011;9747;48.536;12.522;2023-07-02T06:59:35;2.75;;;1.88;;
19225;SDS011;9747;48.536;12.522;2023-07-02T07:02:03;2.63;;;2.13;;
19225;SDS011;9747;48.536;12.522;2023-07-02T07:04:31;2.25;;;2.08;;
19225;SDS011;9747;48.536;12.522;2023-07-02T07:07:01;3.33;;;1.73;;
19225;SDS011;9747;48.536;12.522;2023-07-02T07:09:28;2.78;;;2.03;;
19225;SDS011;9747;48.536;12.522;2023-07-02T07:11:56;6.90;;;5.35;;
19225;SDS011;9747;48.536;12.522;2023-07-02T07:14:23;8.43;;;6.68;;
19225;SDS011;9747;48.536;12.522;2023-07-02T07:16:51;5.95;;;4.22;;
19225;SDS011;9747;48.536;12.522;2023-07-02T07:19:18;4.05;;;3.00;;
19225;SDS011;9747;48.536;12.522;2023-07-02T07:21:45;2.80;;;2.60;;
19225;SDS011;9747;48.536;12.522;2023-07-02T07:24:15;2.90;;;2.70;;
19225;SDS011;9747;48.536;12.522;2023-07-02T07:26:42;7.47;;;2.40;;
19225;SDS011;9747;48.536;12.522;2023-07-02T07:29:10;4.00;;;2.20;;
19225;SDS011;9747;48.536;12.522;2023-07-02T07:31:37;5.32;;;2.33;;
19225;SDS011;9747;48.536;12.522;2023-07-02T07:34:05;4.13;;;2.88;;
19225;SDS011;9747;48.536;12.522;2023-07-02T07:36:32;3.03;;;2.10;;
19225;SDS011;9747;48.536;12.522;2023-07-02T07:38:59;2.63;;;2.10;;
19225;SDS011;9747;48.536;12.522;2023-07-02T07:41:28;2.92;;;2.00;;
19225;SDS011;9747;48.536;12.522;2023-07-02T07:43:57;2.30;;;2.00;;
19225;SDS011;9747;48.536;12.522;2023-07-02T07:46:25;2.08;;;1.80;;
19225;SDS011;9747;48.536;12.522;2023-07-02T07:48:53;4.72;;;2.50;;
19225;SDS011;9747;48.536;12.522;2023-07-02T07:51:21;3.28;;;2.30;;
19225;SDS011;9747;48.536;12.522;2023-07-02T07:53:48;4.43;;;2.22;;
19225;SDS011;9747;48.536;12.522;2023-07-02T07:56:16;2.35;;;2.15;;
19225;SDS011;9747;48.536;12.522;2023-07-02T07:58:44;2.63;;;2.42;;
19225;SDS011;9747;48.536;12.522;2023-07-02T08:01:12;2.78;;;2.20;;
19225;SDS011;9747;48.536;12.522;2023-07-02T08:03:39;2.50;;;2.30;;
19225;SDS011;9747;48.536;12.522;2023-07-02T08:06:07;3.53;;;2.30;;
19225;SDS011;9747;48.536;12.522;2023-07-02T08:08:34;2.40;;;2.17;;
19225;SDS011;9747;48.536;12.522;2023-07-02T08:11:02;4.85;;;2.70;;
19225;SDS011;9747;48.536;12.522;2023-07-02T08:13:29;4.47;;;2.88;;
19225;SDS011;9747;48.536;12.522;2023-07-02T08:15:58;5.57;;;2.60;;
19225;SDS011;9747;48.536;12.522;2023-07-02T08:18:25;3.55;;;2.45;;
19225;SDS011;9747;48.536;12.522;2023-07-02T08:20:52;7.82;;;4.22;;
19225;SDS011;9747;48.536;12.522;2023-07-02T08:23:20;4.72;;;3.45;;
19225;SDS011;9747;48.536;12.522;2023-07-02T08:25:47;10.00;;;4.90;;
19225;SDS011;9747;48.536;12.522;2023-07-02T08:28:15;9.48;;;3.88;;
19225;SDS011;9747;48.536;12.522;2023-07-02T08:30:42;10.48;;;4.65;;
19225;SDS011;9747;48.536;12.522;2023-07-02T08:33:11;6.25;;;4.00;;
19225;SDS011;9747;48.536;12.522;2023-07-02T08:35:38;5.72;;;3.80;;
19225;SDS011;9747;48.536;12.522;2023-07-02T08:38:05;8.82;;;4.00;;
19225;SDS011;9747;48.536;12.522;2023-07-02T08:40:33;6.30;;;3.90;;
19225;SDS011;9747;48.536;12.522;2023-07-02T08:43:01;7.45;;;4.13;;
19225;SDS011;9747;48.536;12.522;2023-07-02T08:45:28;7.00;;;3.85;;
19225;SDS011;9747;48.536;12.522;2023-07-02T08:47:57;6.57;;;3.90;;
19225;SDS011;9747;48.536;12.522;2023-07-02T08:50:26;7.05;;;4.10;;
19225;SDS011;9747;48.536;12.522;2023-07-02T08:52:53;11.02;;;4.88;;
19225;SDS011;9747;48.536;12.522;2023-07-02T08:55:21;8.95;;;4.55;;
19225;SDS011;9747;48.536;12.522;2023-07-02T08:57:52;7.38;;;4.60;;
19225;SDS011;9747;48.536;12.522;2023-07-02T09:00:20;5.72;;;3.67;;
19225;SDS011;9747;48.536;12.522;2023-07-02T09:02:48;10.82;;;4.20;;
19225;SDS011;9747;48.536;12.522;2023-07-02T09:05:16;9.13;;;4.70;;
19225;SDS011;9747;48.536;12.522;2023-07-02T09:07:45;5.68;;;3.85;;
19225;SDS011;9747;48.536;12.522;2023-07-02T09:10:25;4.95;;;3.70;;
19225;SDS011;9747;48.536;12.522;2023-07-02T09:13:02;6.05;;;4.10;;
19225;SDS011;9747;48.536;12.522;2023-07-02T09:15:34;5.20;;;3.95;;
19225;SDS011;9747;48.536;12.522;2023-07-02T09:18:13;5.18;;;3.95;;
19225;SDS011;9747;48.536;12.522;2023-07-02T09:20:42;9.70;;;4.43;;
19225;SDS011;9747;48.536;12.522;2023-07-02T09:23:12;10.43;;;5.15;;
19225;SDS011;9747;48.536;12.522;2023-07-02T09:25:39;7.53;;;4.68;;
19225;SDS011;9747;48.536;12.522;2023-07-02T09:28:14;6.78;;;4.97;;
19225;SDS011;9747;48.536;12.522;2023-07-02T09:30:50;6.78;;;4.75;;
19225;SDS011;9747;48.536;12.522;2023-07-02T09:33:19;8.15;;;4.82;;
19225;SDS011;9747;48.536;12.522;2023-07-02T09:35:47;6.07;;;4.60;;
19225;SDS011;9747;48.536;12.522;2023-07-02T09:38:18;9.27;;;4.45;;
19225;SDS011;9747;48.536;12.522;2023-07-02T09:40:47;8.02;;;4.90;;
19225;SDS011;9747;48.536;12.522;2023-07-02T09:43:17;7.63;;;4.28;;
19225;SDS011;9747;48.536;12.522;2023-07-02T09:45:46;6.45;;;4.40;;
19225;SDS011;9747;48.536;12.522;2023-07-02T09:48:16;6.35;;;4.10;;
19225;SDS011;9747;48.536;12.522;2023-07-02T09:50:44;5.22;;;3.80;;
19225;SDS011;9747;48.536;12.522;2023-07-02T09:53:13;5.50;;;3.85;;
19225;SDS011;9747;48.536;12.522;2023-07-02T09:55:42;5.45;;;3.92;;
19225;SDS011;9747;48.536;12.522;2023-07-02T09:58:10;4.63;;;3.42;;
19225;SDS011;9747;48.536;12.522;2023-07-02T10:00:37;7.82;;;3.65;;
19225;SDS011;9747;48.536;12.522;2023-07-02T10:03:06;4.03;;;3.38;;
19225;SDS011;9747;48.536;12.522;2023-07-02T10:05:33;5.22;;;4.07;;
19225;SDS011;9747;48.536;12.522;2023-07-02T10:08:11;6.95;;;3.90;;
19225;SDS011;9747;48.536;12.522;2023-07-02T10:10:40;5.28;;;3.63;;
19225;SDS011;9747;48.536;12.522;2023-07-02T10:13:09;7.55;;;4.20;;
19225;SDS011;9747;48.536;12.522;2023-07-02T10:15:36;4.95;;;3.90;;
19225;SDS011;9747;48.536;12.522;2023-07-02T10:18:05;4.95;;;3.90;;
19225;SDS011;9747;48.536;12.522;2023-07-02T10:20:34;6.18;;;4.15;;
19225;SDS011;9747;48.536;12.522;2023-07-02T10:23:03;3.90;;;3.47;;
19225;SDS011;9747;48.536;12.522;2023-07-02T10:25:31;7.03;;;4.18;;
19225;SDS011;9747;48.536;12.522;2023-07-02T10:28:13;4.40;;;3.75;;
19225;SDS011;9747;48.536;12.522;2023-07-02T10:30:41;4.45;;;4.05;;
19225;SDS011;9747;48.536;12.522;2023-07-02T10:33:13;7.15;;;4.20;;
19225;SDS011;9747;48.536;12.522;2023-07-02T10:35:41;6.97;;;4.10;;
19225;SDS011;9747;48.536;12.522;2023-07-02T10:38:15;5.15;;;4.40;;
19225;SDS011;9747;48.536;12.522;2023-07-02T10:40:44;9.68;;;7.00;;
19225;SDS011;9747;48.536;12.522;2023-07-02T10:43:13;7.70;;;6.05;;
19225;SDS011;9747;48.536;12.522;2023-07-02T10:45:49;8.20;;;5.90;;
19225;SDS011;9747;48.536;12.522;2023-07-02T10:48:17;9.55;;;6.43;;
19225;SDS011;9747;48.536;12.522;2023-07-02T10:50:44;6.80;;;5.60;;
19225;SDS011;9747;48.536;12.522;2023-07-02T10:53:14;8.90;;;6.20;;
19225;SDS011;9747;48.536;12.522;2023-07-02T10:55:42;9.02;;;6.10;;
19225;SDS011;9747;48.536;12.522;2023-07-02T10:58:10;7.97;;;6.22;;
19225;SDS011;9747;48.536;12.522;2023-07-02T11:00:43;10.20;;;7.95;;
19225;SDS011;9747;48.536;12.522;2023-07-02T11:03:17;8.38;;;7.13;;
19225;SDS011;9747;48.536;12.522;2023-07-02T11:05:45;11.30;;;8.50;;
19225;SDS011;9747;48.536;12.522;2023-07-02T11:08:13;9.02;;;7.90;;
19225;SDS011;9747;48.536;12.522;2023-07-02T11:10:41;8.70;;;6.25;;
19225;SDS011;9747;48.536;12.522;2023-07-02T11:13:13;10.85;;;7.55;;
19225;SDS011;9747;48.536;12.522;2023-07-02T11:15:41;9.18;;;6.90;;
19225;SDS011;9747;48.536;12.522;2023-07-02T11:18:11;11.95;;;6.90;;
19225;SDS011;9747;48.536;12.522;2023-07-02T11:20:39;7.38;;;6.68;;
19225;SDS011;9747;48.536;12.522;2023-07-02T11:23:16;8.70;;;6.53;;
19225;SDS011;9747;48.536;12.522;2023-07-02T11:25:53;10.77;;;6.45;;
19225;SDS011;9747;48.536;12.522;2023-07-02T11:28:24;9.50;;;6.00;;
19225;SDS011;9747;48.536;12.522;2023-07-02T11:30:53;6.80;;;5.70;;
19225;SDS011;9747;48.536;12.522;2023-07-02T11:33:20;8.40;;;6.50;;
19225;SDS011;9747;48.536;12.522;2023-07-02T11:35:58;9.50;;;6.10;;
19225;SDS011;9747;48.536;12.522;2023-07-02T11:38:25;9.02;;;6.25;;
19225;SDS011;9747;48.536;12.522;2023-07-02T11:40:53;10.15;;;5.97;;
19225;SDS011;9747;48.536;12.522;2023-07-02T11:43:20;10.20;;;5.60;;
19225;SDS011;9747;48.536;12.522;2023-07-02T11:45:49;7.28;;;5.93;;
19225;SDS011;9747;48.536;12.522;2023-07-02T11:48:16;7.30;;;5.63;;
19225;SDS011;9747;48.536;12.522;2023-07-02T11:50:43;8.85;;;5.90;;
19225;SDS011;9747;48.536;12.522;2023-07-02T11:53:11;9.10;;;6.07;;
19225;SDS011;9747;48.536;12.522;2023-07-02T11:55:39;10.82;;;6.38;;
19225;SDS011;9747;48.536;12.522;2023-07-02T11:58:06;9.52;;;5.80;;
19225;SDS011;9747;48.536;12.522;2023-07-02T12:00:34;8.07;;;5.30;;
19225;SDS011;9747;48.536;12.522;2023-07-02T12:03:02;7.50;;;5.20;;
19225;SDS011;9747;48.536;12.522;2023-07-02T12:05:30;10.02;;;5.97;;
19225;SDS011;9747;48.536;12.522;2023-07-02T12:07:57;7.50;;;5.40;;
19225;SDS011;9747;48.536;12.522;2023-07-02T12:10:25;8.18;;;5.60;;
19225;SDS011;9747;48.536;12.522;2023-07-02T12:12:52;6.45;;;5.38;;
19225;SDS011;9747;48.536;12.522;2023-07-02T12:15:19;7.70;;;5.43;;
19225;SDS011;9747;48.536;12.522;2023-07-02T12:17:47;7.53;;;5.47;;
19225;SDS011;9747;48.536;12.522;2023-07-02T12:20:16;7.57;;;5.75;;
19225;SDS011;9747;48.536;12.522;2023-07-02T12:22:43;8.48;;;5.60;;
19225;SDS011;9747;48.536;12.522;2023-07-02T12:25:11;9.00;;;5.25;;
19225;SDS011;9747;48.536;12.522;2023-07-02T12:27:38;6.95;;;5.32;;
19225;SDS011;9747;48.536;12.522;2023-07-02T12:30:06;7.28;;;5.65;;
19225;SDS011;9747;48.536;12.522;2023-07-02T12:32:37;6.75;;;5.38;;
19225;SDS011;9747;48.536;12.522;2023-07-02T12:35:05;9.32;;;6.00;;
19225;SDS011;9747;48.536;12.522;2023-07-02T12:37:35;6.80;;;5.35;;
19225;SDS011;9747;48.536;12.522;2023-07-02T12:40:09;7.50;;;5.55;;
19225;SDS011;9747;48.536;12.522;2023-07-02T12:42:37;8.07;;;5.95;;
19225;SDS011;9747;48.536;12.522;2023-07-02T12:45:05;10.15;;;6.30;;
19225;SDS011;9747;48.536;12.522;2023-07-02T12:47:34;8.65;;;6.30;;
19225;SDS011;9747;48.536;12.522;2023-07-02T12:50:01;7.70;;;5.60;;
19225;SDS011;9747;48.536;12.522;2023-07-02T12:52:30;7.63;;;5.78;;
19225;SDS011;9747;48.536;12.522;2023-07-02T12:54:59;8.20;;;6.00;;
19225;SDS011;9747;48.536;12.522;2023-07-02T12:57:26;10.27;;;5.65;;
19225;SDS011;9747;48.536;12.522;2023-07-02T12:59:54;8.00;;;5.72;;
19225;SDS011;9747;48.536;12.522;2023-07-02T13:02:22;8.55;;;5.45;;
19225;SDS011;9747;48.536;12.522;2023-07-02T13:04:50;6.55;;;5.60;;
19225;SDS011;9747;48.536;12.522;2023-07-02T13:07:17;8.32;;;5.35;;
19225;SDS011;9747;48.536;12.522;2023-07-02T13:09:45;8.80;;;5.60;;
19225;SDS011;9747;48.536;12.522;2023-07-02T13:12:13;9.10;;;5.90;;
19225;SDS011;9747;48.536;12.522;2023-07-02T13:14:41;8.07;;;5.88;;
19225;SDS011;9747;48.536;12.522;2023-07-02T13:17:09;7.82;;;5.50;;
19225;SDS011;9747;48.536;12.522;2023-07-02T13:19:37;7.05;;;5.28;;
19225;SDS011;9747;48.536;12.522;2023-07-02T13:22:04;7.45;;;5.03;;
19225;SDS011;9747;48.536;12.522;2023-07-02T13:24:32;7.90;;;5.38;;
19225;SDS011;9747;48.536;12.522;2023-07-02T13:27:02;7.28;;;5.10;;
19225;SDS011;9747;48.536;12.522;2023-07-02T13:29:34;8.82;;;5.32;;
19225;SDS011;9747;48.536;12.522;2023-07-02T13:32:01;10.10;;;6.32;;
19225;SDS011;9747;48.536;12.522;2023-07-02T13:34:29;6.65;;;5.00;;
19225;SDS011;9747;48.536;12.522;2023-07-02T13:36:56;6.18;;;5.25;;
19225;SDS011;9747;48.536;12.522;2023-07-02T13:39:24;8.40;;;5.30;;
19225;SDS011;9747;48.536;12.522;2023-07-02T13:41:51;9.75;;;5.20;;
19225;SDS011;9747;48.536;12.522;2023-07-02T13:44:19;7.97;;;5.30;;
19225;SDS011;9747;48.536;12.522;2023-07-02T13:46:47;8.23;;;5.93;;
19225;SDS011;9747;48.536;12.522;2023-07-02T13:49:15;8.38;;;5.38;;
19225;SDS011;9747;48.536;12.522;2023-07-02T13:51:42;7.35;;;5.55;;
19225;SDS011;9747;48.536;12.522;2023-07-02T13:54:11;7.32;;;5.30;;
19225;SDS011;9747;48.536;12.522;2023-07-02T13:56:39;8.60;;;5.95;;
19225;SDS011;9747;48.536;12.522;2023-07-02T13:59:08;8.10;;;5.70;;
19225;SDS011;9747;48.536;12.522;2023-07-02T14:01:35;6.50;;;5.18;;
19225;SDS011;9747;48.536;12.522;2023-07-02T14:04:03;7.95;;;5.55;;
19225;SDS011;9747;48.536;12.522;2023-07-02T14:06:31;7.07;;;5.45;;
19225;SDS011;9747;48.536;12.522;2023-07-02T14:08:58;7.18;;;5.72;;
19225;SDS011;9747;48.536;12.522;2023-07-02T14:11:27;8.93;;;5.65;;
19225;SDS011;9747;48.536;12.522;2023-07-02T14:13:56;6.10;;;5.25;;
19225;SDS011;9747;48.536;12.522;2023-07-02T14:16:24;6.78;;;5.15;;
19225;SDS011;9747;48.536;12.522;2023-07-02T14:18:52;7.68;;;5.20;;
19225;SDS011;9747;48.536;12.522;2023-07-02T14:21:19;8.70;;;5.55;;
19225;SDS011;9747;48.536;12.522;2023-07-02T14:23:47;9.02;;;5.55;;
19225;SDS011;9747;48.536;12.522;2023-07-02T14:26:14;8.30;;;5.63;;
19225;SDS011;9747;48.536;12.522;2023-07-02T14:28:41;8.10;;;5.95;;
19225;SDS011;9747;48.536;12.522;2023-07-02T14:31:09;9.10;;;6.38;;
19225;SDS011;9747;48.536;12.522;2023-07-02T14:33:38;8.13;;;5.75;;
19225;SDS011;9747;48.536;12.522;2023-07-02T14:36:05;9.27;;;6.28;;
19225;SDS011;9747;48.536;12.522;2023-07-02T14:38:33;8.30;;;6.22;;
19225;SDS011;9747;48.536;12.522;2023-07-02T14:41:01;9.00;;;6.85;;
19225;SDS011;9747;48.536;12.522;2023-07-02T14:43:29;9.85;;;6.68;;
19225;SDS011;9747;48.536;12.522;2023-07-02T14:45:58;8.48;;;6.63;;
19225;SDS011;9747;48.536;12.522;2023-07-02T14:48:27;7.93;;;6.20;;
19225;SDS011;9747;48.536;12.522;2023-07-02T14:50:57;8.55;;;6.75;;
19225;SDS011;9747;48.536;12.522;2023-07-02T14:53:26;10.25;;;6.85;;
19225;SDS011;9747;48.536;12.522;2023-07-02T14:55:56;10.98;;;7.05;;